»·PEaware :: N007GH L52-L88

N007GH :: L52-L88

FLIGHT INFORMATION

Flight Status: Arrived
Operator: Privately registered:
United States
More flights under this callsign
Pilot: Gary H. (21214)
Aircraft: PIPER PA-24 COMMANCHE
(PA24)
More flights by this aircraft type
Origin: L52 Oceano Co
United States
Destination: L88 New Cuyama
United States
More flights between these airports :: More routes between these airports
Route:
File this flight plan on PilotEdge
Remarks:
Altitude:
(Current/Filed)
7,500ft
Speed:
(Current/Filed)
150kts
Departed: 09-Jul-19 08:20 AM
Arrived: 09-Jul-19 08:46 AM
Distance/Time
Traveled:
47nm/0:26
Distance/Time
To Go:
Arrived

Flight Plot

Page will automatically refresh every two minutes.


Map Options




Map Legend


Flown Route
Filed Route
Departure Airport
Arrival Airport
Navaid (VOR, NDB)
Fix

Horizontal Profiles

Position Reports

Time Latitude Longitude Heading Altitude Ground
Speed
09-Jul-19 08:08 35.102266 -120.622550 214 17ft 0kts
09-Jul-19 08:09 35.102264 -120.622552 214 17ft 0kts
09-Jul-19 08:10 35.102262 -120.622553 214 17ft 0kts
09-Jul-19 08:11 35.103261 -120.624592 304 17ft 17kts
09-Jul-19 08:12 35.102893 -120.624950 119 17ft 3kts
09-Jul-19 08:13 35.101043 -120.621328 122 17ft 34kts
09-Jul-19 08:14 35.099395 -120.619482 294 17ft 4kts
09-Jul-19 08:15 35.099432 -120.619543 314 17ft 0kts
09-Jul-19 08:16 35.099433 -120.619544 314 17ft 0kts
09-Jul-19 08:17 35.100584 -120.621547 303 17ft 26kts
09-Jul-19 08:18 35.103026 -120.625652 20 17ft 4kts
09-Jul-19 08:19 35.099828 -120.618872 119 150ft 85kts
09-Jul-19 08:20 35.093253 -120.588887 69 1638ft 114kts
09-Jul-19 08:21 35.111633 -120.558376 34 2917ft 111kts
09-Jul-19 08:22 35.138823 -120.541338 35 4524ft 97kts
09-Jul-19 08:23 35.156317 -120.511090 91 5567ft 120kts
09-Jul-19 08:24 35.153745 -120.471167 93 6794ft 119kts
09-Jul-19 08:25 35.151159 -120.428913 92 7595ft 138kts
09-Jul-19 08:26 35.147581 -120.376158 93 7510ft 161kts
09-Jul-19 08:27 35.144224 -120.322090 93 7538ft 159kts
09-Jul-19 08:28 35.140909 -120.267958 93 7537ft 159kts
09-Jul-19 08:29 35.136538 -120.213942 96 7530ft 159kts
09-Jul-19 08:30 35.131031 -120.160055 96 7528ft 160kts
09-Jul-19 08:31 35.118889 -120.108473 107 7532ft 159kts
09-Jul-19 08:32 35.104114 -120.056390 116 7528ft 165kts
09-Jul-19 08:33 35.076391 -120.010883 119 7128ft 166kts
09-Jul-19 08:34 35.052454 -119.960397 120 6425ft 172kts
09-Jul-19 08:35 35.028472 -119.910950 122 6178ft 169kts
09-Jul-19 08:36 35.004797 -119.861517 120 5900ft 168kts
09-Jul-19 08:37 34.983710 -119.816939 117 5572ft 168kts
09-Jul-19 08:38 34.976450 -119.779600 96 5115ft 156kts
09-Jul-19 08:39 34.976450 -119.779600 96 5115ft 156kts
09-Jul-19 08:40 34.976450 -119.779600 96 5115ft 156kts
09-Jul-19 08:41 34.976450 -119.779600 96 5115ft 156kts
09-Jul-19 08:42 34.973962 -119.766647 111 4308ft 163kts
09-Jul-19 08:43 34.958227 -119.724810 121 3149ft 111kts
09-Jul-19 08:44 34.944099 -119.695539 115 2288ft 87kts
09-Jul-19 08:45 34.938086 -119.681531 120 2206ft 13kts
09-Jul-19 08:46 34.940194 -119.686152 296 2206ft 29kts
09-Jul-19 08:47 34.942268 -119.691120 324 2206ft 0kts
09-Jul-19 08:48 34.943664 -119.691469 43 2206ft 4kts
09-Jul-19 08:49 34.943680 -119.691029 111 2206ft 0kts
09-Jul-19 08:50 34.943680 -119.691029 111 2206ft 0kts
09-Jul-19 08:51 34.943680 -119.691029 111 2206ft 0kts
09-Jul-19 08:52 34.943680 -119.691029 111 2206ft 0kts
09-Jul-19 08:53 34.943680 -119.691029 111 2206ft 0kts
09-Jul-19 08:54 34.943680 -119.691029 111 2206ft 0kts
09-Jul-19 08:55 34.943680 -119.691029 111 2206ft 0kts
09-Jul-19 08:56 34.943680 -119.691029 111 2206ft 0kts
09-Jul-19 08:57 34.943680 -119.691029 111 2206ft 0kts
09-Jul-19 08:58 34.943680 -119.691029 111 2206ft 0kts
09-Jul-19 08:59 34.943680 -119.691029 111 2206ft 0kts

Navigation Log

Ident Type
Flight plan parsing failed, navigation log unavailable